createdAt,value
2022-10-19T00:01:04.686Z,101603.38
2022-10-19T00:03:32.967Z,101616.63
2022-10-19T00:06:01.389Z,101578.41
2022-10-19T00:08:29.287Z,101553.63
2022-10-19T00:10:57.095Z,101616.44
2022-10-19T00:13:25.168Z,101457.84
2022-10-19T00:15:54.356Z,101540.16
2022-10-19T00:18:22.327Z,101611.88
2022-10-19T00:20:50.213Z,101473.84
2022-10-19T00:23:18.060Z,101594.31
2022-10-19T00:25:56.181Z,101597.09
2022-10-19T00:28:24.113Z,101576.00
2022-10-19T00:30:52.216Z,101567.03
2022-10-19T00:33:22.434Z,101598.84
2022-10-19T00:35:50.289Z,101605.00
2022-10-19T00:38:18.394Z,101575.72
2022-10-19T00:40:46.641Z,101604.84
2022-10-19T00:43:16.513Z,101600.47
2022-10-19T00:45:44.918Z,101611.22
2022-10-19T00:48:16.576Z,101588.31
2022-10-19T00:50:47.065Z,101581.19
2022-10-19T00:53:15.590Z,101619.25
2022-10-19T00:55:44.151Z,101618.19
2022-10-19T00:58:12.290Z,101623.56
2022-10-19T01:00:40.609Z,101602.34
2022-10-19T01:03:10.890Z,101623.53
2022-10-19T01:05:39.540Z,101629.69
2022-10-19T01:08:11.113Z,101597.84
2022-10-19T01:10:50.043Z,101508.41
2022-10-19T01:13:29.769Z,101587.19
2022-10-19T01:16:03.811Z,101611.97
2022-10-19T01:18:41.323Z,101612.81
2022-10-19T01:21:24.202Z,101621.72
2022-10-19T01:24:23.040Z,101567.66
2022-10-19T01:27:27.848Z,101622.69
2022-10-19T01:30:06.663Z,101632.66
2022-10-19T01:32:43.281Z,101615.94
2022-10-19T01:35:16.593Z,101631.97
2022-10-19T01:37:49.701Z,101617.91
2022-10-19T01:40:25.818Z,101626.69
2022-10-19T01:43:02.368Z,101629.28
2022-10-19T01:45:39.758Z,101629.34
2022-10-19T01:48:13.123Z,101627.50
2022-10-19T01:50:45.838Z,101599.13
2022-10-19T01:53:16.575Z,101582.38
2022-10-19T01:55:46.806Z,101548.75
2022-10-19T01:58:20.189Z,101607.31
2022-10-19T02:00:53.028Z,101506.28
2022-10-19T02:03:22.155Z,101624.19
2022-10-19T02:05:53.518Z,101629.53
2022-10-19T02:08:26.645Z,101620.63
2022-10-19T02:10:56.189Z,101625.00
2022-10-19T02:13:25.727Z,101606.31
2022-10-19T02:15:59.091Z,101583.28
2022-10-19T02:18:32.540Z,101583.25
2022-10-19T02:21:02.483Z,101593.91
2022-10-19T02:23:30.531Z,101547.78
2022-10-19T02:25:59.302Z,101590.28
2022-10-19T02:28:29.279Z,101527.31
2022-10-19T02:31:00.003Z,101610.47
2022-10-19T02:33:29.786Z,101617.63
2022-10-19T02:35:58.884Z,101570.94
2022-10-19T02:38:27.059Z,101629.50
2022-10-19T02:41:05.390Z,101618.00
2022-10-19T02:43:38.125Z,101618.81
2022-10-19T02:46:11.736Z,101609.88
2022-10-19T02:48:42.262Z,101603.63
2022-10-19T02:51:27.829Z,101616.03
2022-10-19T02:53:55.765Z,101618.56
2022-10-19T02:56:26.589Z,101599.19
2022-10-19T02:58:54.627Z,101623.03
2022-10-19T03:01:26.732Z,101609.72
2022-10-19T03:03:54.788Z,101630.09
2022-10-19T03:06:22.656Z,101627.38
2022-10-19T03:08:50.653Z,101596.38
2022-10-19T03:11:18.504Z,101633.63
2022-10-19T03:16:19.784Z,101632.94
2022-10-19T03:18:50.779Z,101586.81
2022-10-19T03:21:19.649Z,101632.88
2022-10-19T03:23:47.580Z,101612.44
2022-10-19T03:26:17.954Z,101571.78
2022-10-19T03:28:45.671Z,101620.66
2022-10-19T03:31:13.663Z,101614.41
2022-10-19T03:33:41.523Z,101618.88
2022-10-19T03:36:22.774Z,101532.88
2022-10-19T03:38:52.466Z,101620.69
2022-10-19T03:41:21.060Z,101614.47
2022-10-19T03:43:49.260Z,101578.13
2022-10-19T03:46:17.601Z,101598.56
2022-10-19T03:48:45.601Z,101571.91
2022-10-19T03:51:15.891Z,101606.56
2022-10-19T03:53:45.269Z,101628.66
2022-10-19T03:56:15.163Z,101617.97
2022-10-19T03:58:44.715Z,101616.97
2022-10-19T04:01:14.822Z,101628.59
2022-10-19T04:03:43.192Z,101622.34
2022-10-19T04:06:16.892Z,101632.91
2022-10-19T04:08:50.332Z,101608.94
2022-10-19T04:11:21.790Z,101625.84
2022-10-19T04:13:50.387Z,101628.47
2022-10-19T04:16:19.550Z,101626.66
2022-10-19T04:18:47.637Z,101612.41
2022-10-19T04:21:23.027Z,101601.03
2022-10-19T04:23:53.439Z,101618.69
2022-10-19T04:26:22.089Z,101585.06
2022-10-19T04:28:50.429Z,101527.53
2022-10-19T04:31:18.342Z,101552.31
2022-10-19T04:36:19.371Z,101594.72
2022-10-19T04:38:47.621Z,101615.91
2022-10-19T04:41:18.729Z,101620.41
2022-10-19T04:43:47.374Z,101601.72
2022-10-19T04:46:17.597Z,101623.06
2022-10-19T04:48:46.671Z,101624.03
2022-10-19T04:51:16.029Z,101626.66
2022-10-19T04:53:44.864Z,101628.53
2022-10-19T04:56:15.836Z,101631.22
2022-10-19T04:58:45.166Z,101633.00
2022-10-19T05:01:14.903Z,101629.38
2022-10-19T05:03:42.935Z,101586.88
2022-10-19T05:06:12.148Z,101635.69
2022-10-19T05:08:40.634Z,101614.41
2022-10-19T05:11:10.567Z,101629.50
2022-10-19T05:13:39.039Z,101630.34
2022-10-19T05:16:11.613Z,101624.19
2022-10-19T05:18:39.984Z,101577.22
2022-10-19T05:21:09.785Z,101624.19
2022-10-19T05:23:37.767Z,101630.41
2022-10-19T05:26:08.276Z,101624.16
2022-10-19T05:28:37.135Z,101627.75
2022-10-19T05:31:11.763Z,101624.13
2022-10-19T05:33:40.412Z,101623.19
2022-10-19T05:36:13.495Z,101592.94
2022-10-19T05:38:41.365Z,101627.53
2022-10-19T05:41:09.200Z,101582.34
2022-10-19T05:43:37.041Z,101621.31
2022-10-19T05:46:06.363Z,101623.94
2022-10-19T05:48:35.783Z,101530.13
2022-10-19T05:51:06.196Z,101620.41
2022-10-19T05:53:34.753Z,101615.91
2022-10-19T05:56:04.986Z,101611.44
2022-10-19T05:58:32.945Z,101617.63
2022-10-19T06:01:01.985Z,101618.44
2022-10-19T06:03:30.431Z,101608.81
2022-10-19T06:05:59.676Z,101619.34
2022-10-19T06:08:27.566Z,101592.84
2022-10-19T06:11:05.849Z,101605.28
2022-10-19T06:13:33.811Z,101622.06
2022-10-19T06:16:01.674Z,101621.03
2022-10-19T06:18:29.590Z,101618.31
2022-10-19T06:21:02.564Z,101604.13
2022-10-19T06:23:30.462Z,101627.25
2022-10-19T06:25:58.406Z,101629.84
2022-10-19T06:28:26.295Z,101621.75
2022-10-19T06:30:54.176Z,101627.03
2022-10-19T06:33:22.153Z,101611.13
2022-10-19T06:35:50.201Z,101588.31
2022-10-19T06:38:19.560Z,101639.59
2022-10-19T06:40:49.023Z,101627.28
2022-10-19T06:43:17.294Z,101587.53
2022-10-19T06:45:45.201Z,101583.03
2022-10-19T06:48:13.203Z,101639.69
2022-10-19T06:50:41.019Z,101642.25
2022-10-19T06:53:09.017Z,101634.38
2022-10-19T06:55:38.756Z,101635.19
2022-10-19T06:58:06.768Z,101642.31
2022-10-19T07:00:34.695Z,101645.81
2022-10-19T07:03:02.635Z,101646.59
2022-10-19T07:05:30.501Z,101589.06
2022-10-19T07:07:58.513Z,101619.13
2022-10-19T07:10:26.511Z,101650.25
2022-10-19T07:12:57.236Z,101645.72
2022-10-19T07:15:25.166Z,101603.97
2022-10-19T07:17:54.122Z,101528.69
2022-10-19T07:20:22.017Z,101653.41
2022-10-19T07:22:50.154Z,101655.09
2022-10-19T07:25:18.166Z,101623.31
2022-10-19T07:27:46.192Z,101664.16
2022-10-19T07:30:15.556Z,101650.88
2022-10-19T07:32:46.895Z,101659.78
2022-10-19T07:35:15.384Z,101660.47
2022-10-19T07:37:43.233Z,101655.09
2022-10-19T07:40:12.514Z,101598.34
2022-10-19T07:42:40.378Z,101632.88
2022-10-19T07:45:08.774Z,101662.16
2022-10-19T07:47:38.161Z,101668.28
2022-10-19T07:50:06.709Z,101619.38
2022-10-19T07:52:36.881Z,101671.59
2022-10-19T07:55:06.008Z,101650.97
2022-10-19T07:57:33.954Z,101667.69
2022-10-19T08:00:01.789Z,101655.41
2022-10-19T08:02:59.736Z,101628.06
2022-10-19T08:05:29.298Z,101671.41
2022-10-19T08:07:57.295Z,101668.00
2022-10-19T08:10:25.136Z,101576.66
2022-10-19T08:12:53.021Z,101680.44
2022-10-19T08:15:20.878Z,101672.19
2022-10-19T08:17:50.106Z,101670.22
2022-10-19T08:20:18.076Z,101665.50
2022-10-19T08:22:46.827Z,101669.88
2022-10-19T08:25:14.748Z,101658.13
2022-10-19T08:27:42.641Z,101673.25
2022-10-19T08:30:11.204Z,101670.75
2022-10-19T08:32:38.990Z,101666.19
2022-10-19T08:35:10.848Z,101631.31
2022-10-19T08:37:44.772Z,101632.63
2022-10-19T08:40:19.825Z,101639.31
2022-10-19T08:42:53.867Z,101652.59
2022-10-19T08:45:34.247Z,101652.28
2022-10-19T08:48:07.932Z,101660.09
2022-10-19T08:50:39.494Z,101537.91
2022-10-19T08:53:12.340Z,101646.59
2022-10-19T08:55:50.919Z,101659.53
2022-10-19T08:58:33.296Z,101658.28
2022-10-19T09:01:09.079Z,101663.38
2022-10-19T09:04:02.068Z,101661.56
2022-10-19T09:06:38.493Z,101660.41
2022-10-19T09:09:06.888Z,101657.59
2022-10-19T09:11:39.944Z,101654.69
2022-10-19T09:14:14.090Z,101644.50
2022-10-19T09:16:41.966Z,101650.50
2022-10-19T09:19:17.293Z,101592.09
2022-10-19T09:21:52.667Z,101620.63
2022-10-19T09:24:29.948Z,101641.34
2022-10-19T09:27:00.261Z,101643.72
2022-10-19T09:29:30.932Z,101640.03
2022-10-19T09:32:01.983Z,101639.16
2022-10-19T09:34:33.945Z,101639.09
2022-10-19T09:37:03.422Z,101621.25
2022-10-19T09:39:32.139Z,101637.34
2022-10-19T09:42:05.877Z,101646.09
2022-10-19T09:44:33.899Z,101622.16
2022-10-19T09:47:18.571Z,101643.06
2022-10-19T09:49:47.778Z,101645.84
2022-10-19T09:52:32.927Z,101652.41
2022-10-19T09:55:02.932Z,101655.47
2022-10-19T09:57:31.073Z,101656.06
2022-10-19T09:59:59.753Z,101654.13
2022-10-19T10:02:33.784Z,101466.81
2022-10-19T10:05:07.454Z,101648.19
2022-10-19T10:07:39.121Z,101642.31
2022-10-19T10:10:17.019Z,101643.94
2022-10-19T10:12:44.980Z,101643.44
2022-10-19T10:15:17.421Z,101598.06
2022-10-19T10:17:48.185Z,101645.63
2022-10-19T10:20:29.416Z,101649.34
2022-10-19T10:23:01.185Z,101639.63
2022-10-19T10:25:32.326Z,101556.69
2022-10-19T10:28:02.760Z,101646.56
2022-10-19T10:30:33.689Z,101648.91
2022-10-19T10:33:13.506Z,101659.50
2022-10-19T10:35:53.681Z,101658.53
2022-10-19T10:38:26.328Z,101638.97
2022-10-19T10:40:57.754Z,101546.50
2022-10-19T10:43:30.657Z,101565.75
2022-10-19T10:46:02.769Z,101638.44
2022-10-19T10:48:33.388Z,101615.94
2022-10-19T10:51:02.171Z,101643.88
2022-10-19T10:53:36.553Z,101610.00
2022-10-19T10:56:06.175Z,101634.63
2022-10-19T10:58:43.340Z,101627.25
2022-10-19T11:01:20.409Z,101608.91
2022-10-19T11:03:58.245Z,101606.88
2022-10-19T11:06:27.824Z,101630.78
2022-10-19T11:09:11.725Z,101624.72
2022-10-19T11:11:44.200Z,101594.63
2022-10-19T11:14:34.018Z,101625.53
2022-10-19T11:17:07.989Z,101607.03
2022-10-19T11:19:40.305Z,101607.22
2022-10-19T11:22:18.486Z,101613.25
2022-10-19T11:25:02.600Z,101609.91
2022-10-19T11:27:44.308Z,101603.97
2022-10-19T11:30:15.054Z,101505.44
2022-10-19T11:32:51.015Z,101597.31
2022-10-19T11:35:35.754Z,101478.06
2022-10-19T11:38:21.406Z,101585.28
2022-10-19T11:41:16.917Z,101587.84
2022-10-19T11:43:55.448Z,101550.44
2022-10-19T11:46:31.770Z,101592.16
2022-10-19T11:49:12.474Z,101471.44
2022-10-19T11:51:49.691Z,101571.53
2022-10-19T11:54:31.791Z,101569.31
2022-10-19T11:57:11.471Z,101554.25
2022-10-19T12:00:03.746Z,101546.09
2022-10-19T12:03:17.428Z,101560.63
2022-10-19T12:05:56.322Z,101546.94
2022-10-19T12:08:39.143Z,101525.31
2022-10-19T12:11:19.039Z,101553.91
2022-10-19T12:13:52.682Z,101511.34
2022-10-19T12:16:22.747Z,101546.16
2022-10-19T12:18:54.491Z,101542.75
2022-10-19T12:21:26.463Z,101531.63
2022-10-19T12:23:55.842Z,101532.75
2022-10-19T12:26:24.586Z,101532.28
2022-10-19T12:28:58.608Z,101515.31
2022-10-19T12:31:28.513Z,101520.28
2022-10-19T12:34:02.906Z,101515.19
2022-10-19T12:36:42.850Z,101521.75
2022-10-19T12:39:18.686Z,101489.28
2022-10-19T12:41:53.252Z,101463.81
2022-10-19T12:44:42.249Z,101489.47
2022-10-19T12:47:13.613Z,101516.50
2022-10-19T12:49:51.007Z,101505.09
2022-10-19T12:52:37.808Z,101513.63
2022-10-19T12:55:28.780Z,101496.66
2022-10-19T12:58:20.827Z,101501.91
2022-10-19T13:01:01.557Z,101490.63
2022-10-19T13:03:34.121Z,101490.94
2022-10-19T13:06:08.708Z,101474.91
2022-10-19T13:08:43.830Z,101491.91
2022-10-19T13:11:15.137Z,101437.88
2022-10-19T13:13:56.540Z,101459.72
2022-10-19T13:17:06.007Z,101473.81
2022-10-19T13:19:35.426Z,101464.88
2022-10-19T13:22:28.869Z,101464.75
2022-10-19T13:25:33.129Z,101464.81
2022-10-19T13:28:38.019Z,101457.88
2022-10-19T13:31:24.498Z,101402.44
2022-10-19T13:33:54.187Z,101449.75
2022-10-19T13:36:25.248Z,101453.97
2022-10-19T13:39:16.382Z,101451.84
2022-10-19T13:41:53.031Z,101454.44
2022-10-19T13:44:35.490Z,101447.91
2022-10-19T13:47:33.503Z,101449.22
2022-10-19T13:50:21.953Z,101445.34
2022-10-19T13:53:09.336Z,101444.16
2022-10-19T13:56:19.306Z,101443.38
2022-10-19T13:59:30.244Z,101440.81
2022-10-19T14:02:32.687Z,101427.69
2022-10-19T14:05:15.916Z,101431.34
2022-10-19T14:07:51.023Z,101413.44
2022-10-19T14:10:25.164Z,101441.66
2022-10-19T14:13:03.654Z,101428.44
2022-10-19T14:15:33.352Z,101437.03
2022-10-19T14:18:03.788Z,101410.84
2022-10-19T14:20:35.817Z,101435.56
2022-10-19T14:23:19.935Z,101423.66
2022-10-19T14:25:54.176Z,101433.66
2022-10-19T14:28:23.567Z,101432.47
2022-10-19T14:31:00.223Z,101391.91
2022-10-19T14:33:29.373Z,101397.34
2022-10-19T14:35:58.041Z,101427.78
2022-10-19T14:38:32.854Z,101433.81
2022-10-19T14:41:02.207Z,101439.81
2022-10-19T14:43:32.347Z,101387.50
2022-10-19T14:46:12.909Z,101401.91
2022-10-19T14:48:42.338Z,101418.63
2022-10-19T14:51:31.055Z,101404.81
2022-10-19T14:54:04.643Z,101301.09
2022-10-19T14:56:40.167Z,101428.44
2022-10-19T14:59:25.815Z,101269.41
2022-10-19T15:01:55.863Z,101385.53
2022-10-19T15:04:27.142Z,101399.75
2022-10-19T15:06:56.469Z,101255.63
2022-10-19T15:09:37.250Z,101356.19
2022-10-19T15:12:18.476Z,101412.06
2022-10-19T15:14:48.840Z,101405.00
2022-10-19T15:17:24.968Z,101400.47
2022-10-19T15:19:53.591Z,101326.75
2022-10-19T15:22:24.251Z,101393.91
2022-10-19T15:24:58.398Z,101388.25
2022-10-19T15:27:33.888Z,101394.72
2022-10-19T15:30:04.386Z,101382.22
2022-10-19T15:32:36.496Z,101315.31
2022-10-19T15:35:13.138Z,101381.03
2022-10-19T15:37:43.260Z,101332.94
2022-10-19T15:40:14.219Z,101323.19
2022-10-19T15:42:46.898Z,101370.13
2022-10-19T15:45:33.113Z,101350.56
2022-10-19T15:48:28.415Z,101365.97
2022-10-19T15:50:58.043Z,101309.44
2022-10-19T15:53:26.293Z,101361.56
2022-10-19T15:55:54.593Z,101341.47
2022-10-19T15:58:23.803Z,101348.50
2022-10-19T16:00:51.778Z,101354.31
2022-10-19T16:03:19.590Z,101340.94
2022-10-19T16:05:47.743Z,101338.66
2022-10-19T16:08:15.634Z,101254.41
2022-10-19T16:10:43.414Z,101336.81
2022-10-19T16:13:11.438Z,101313.00
2022-10-19T16:15:40.620Z,101332.84
2022-10-19T16:18:10.700Z,101326.75
2022-10-19T16:20:38.854Z,101310.84
2022-10-19T16:23:06.736Z,101328.50
2022-10-19T16:25:34.588Z,101324.09
2022-10-19T16:28:02.477Z,101332.22
2022-10-19T16:30:30.377Z,101312.22
2022-10-19T16:32:59.982Z,101336.16
2022-10-19T16:35:27.839Z,101330.22
2022-10-19T16:37:55.776Z,101335.72
2022-10-19T16:40:24.567Z,101288.72
2022-10-19T16:42:52.712Z,101337.47
2022-10-19T16:45:20.924Z,101340.09
2022-10-19T16:47:50.707Z,101339.31
2022-10-19T16:50:20.491Z,101342.06
2022-10-19T16:52:48.395Z,101327.03
2022-10-19T16:55:16.226Z,101344.47
2022-10-19T16:57:44.045Z,101343.81
2022-10-19T17:00:13.245Z,101342.19
2022-10-19T17:02:44.322Z,101338.56
2022-10-19T17:05:14.551Z,101295.50
2022-10-19T17:07:43.736Z,101351.28
2022-10-19T17:10:11.729Z,101348.03
2022-10-19T17:12:41.264Z,101346.47
2022-10-19T17:15:41.036Z,101342.00
2022-10-19T17:17:58.844Z,101346.00
2022-10-19T17:20:26.825Z,101328.31
2022-10-19T17:22:56.178Z,101348.09
2022-10-19T17:25:24.093Z,101352.84
2022-10-19T17:27:52.061Z,101320.44
2022-10-19T17:30:20.330Z,101347.03
2022-10-19T17:32:48.202Z,101347.13
2022-10-19T17:35:16.213Z,101081.59
2022-10-19T17:37:44.059Z,101343.81
2022-10-19T17:40:14.004Z,101334.22
2022-10-19T17:42:41.890Z,101343.03
2022-10-19T17:45:11.337Z,101332.53
2022-10-19T17:47:39.203Z,101238.19
2022-10-19T17:50:07.802Z,101344.09
2022-10-19T17:52:35.643Z,101343.16
2022-10-19T17:55:18.780Z,101347.66
2022-10-19T17:57:48.063Z,101290.41
2022-10-19T18:00:16.312Z,101341.38
2022-10-19T18:02:45.779Z,101299.22
2022-10-19T18:05:13.729Z,101323.22
2022-10-19T18:07:44.034Z,101341.78
2022-10-19T18:10:11.700Z,101341.09
2022-10-19T18:12:39.577Z,101337.56
2022-10-19T18:15:09.797Z,101343.03
2022-10-19T18:17:37.938Z,101343.91
2022-10-19T18:20:07.044Z,101336.06
2022-10-19T18:22:35.097Z,101337.94
2022-10-19T18:25:03.411Z,101345.69
2022-10-19T18:27:31.420Z,101349.44
2022-10-19T18:29:59.257Z,101339.66
2022-10-19T18:32:28.639Z,101339.47
2022-10-19T18:34:56.432Z,101235.44
2022-10-19T18:37:24.265Z,101336.09
2022-10-19T18:39:52.166Z,101331.69
2022-10-19T18:42:20.170Z,101337.13
2022-10-19T18:44:48.275Z,101311.25
2022-10-19T18:47:16.073Z,101297.19
2022-10-19T18:49:45.441Z,101321.00
2022-10-19T18:52:13.373Z,101295.69
2022-10-19T18:54:41.287Z,101307.81
2022-10-19T18:57:09.563Z,101305.88
2022-10-19T18:59:37.601Z,101304.00
2022-10-19T19:02:07.869Z,101297.59
2022-10-19T19:04:41.793Z,101291.44
2022-10-19T19:07:11.063Z,101283.41
2022-10-19T19:09:39.285Z,101285.84
2022-10-19T19:12:07.161Z,101290.22
2022-10-19T19:14:35.109Z,101263.56
2022-10-19T19:17:02.969Z,101282.00
2022-10-19T19:19:31.056Z,101284.59
2022-10-19T19:22:05.013Z,101189.50
2022-10-19T19:24:37.137Z,101276.00
2022-10-19T19:27:05.060Z,101272.59
2022-10-19T19:29:33.020Z,101279.25
2022-10-19T19:32:00.883Z,101277.50
2022-10-19T19:34:28.750Z,101267.00
2022-10-19T19:36:56.620Z,101267.81
2022-10-19T19:39:24.483Z,101262.75
2022-10-19T19:41:53.735Z,101253.72
2022-10-19T19:44:21.641Z,101250.19
2022-10-19T19:46:49.617Z,101258.13
2022-10-19T19:49:17.734Z,101136.41
2022-10-19T19:51:45.639Z,101254.38
2022-10-19T19:54:13.530Z,101250.19
2022-10-19T19:56:42.278Z,101227.22
2022-10-19T19:59:13.112Z,101231.31
2022-10-19T20:01:41.240Z,101255.59
2022-10-19T20:04:09.303Z,101257.28
2022-10-19T20:06:38.548Z,101243.06
2022-10-19T20:09:07.425Z,101251.94
2022-10-19T20:11:38.408Z,101257.13
2022-10-19T20:14:09.278Z,101256.41
2022-10-19T20:16:38.512Z,101257.25
2022-10-19T20:19:10.684Z,101253.94
2022-10-19T20:21:38.831Z,101252.00
2022-10-19T20:24:07.538Z,101245.00
2022-10-19T20:26:35.413Z,101255.47
2022-10-19T20:29:05.964Z,101238.91
2022-10-19T20:31:39.420Z,101256.47
2022-10-19T20:34:13.960Z,101249.41
2022-10-19T20:36:42.758Z,101220.25
2022-10-19T20:39:11.305Z,101257.53
2022-10-19T20:41:39.149Z,101238.03
2022-10-19T20:44:07.081Z,101250.34
2022-10-19T20:46:36.899Z,101247.00
2022-10-19T20:49:05.004Z,101250.41
2022-10-19T20:51:36.627Z,101228.66
2022-10-19T20:54:07.348Z,101244.31
2022-10-19T20:56:36.710Z,101246.25
2022-10-19T20:59:06.422Z,101230.09
2022-10-19T21:01:36.712Z,101240.59
2022-10-19T21:04:05.578Z,101229.16
2022-10-19T21:06:38.550Z,101226.50
2022-10-19T21:09:06.909Z,101232.69
2022-10-19T21:11:37.202Z,101232.91
2022-10-19T21:14:05.739Z,101228.38
2022-10-19T21:16:35.249Z,101213.25
2022-10-19T21:19:04.953Z,101221.56
2022-10-19T21:21:35.972Z,101216.34
2022-10-19T21:24:07.211Z,101210.13
2022-10-19T21:26:36.445Z,101178.13
2022-10-19T21:29:05.085Z,101180.81
2022-10-19T21:31:32.984Z,101179.81
2022-10-19T21:34:04.532Z,101170.72
2022-10-19T21:36:32.498Z,101165.88
2022-10-19T21:39:02.134Z,101072.50
2022-10-19T21:41:30.887Z,101155.09
2022-10-19T21:43:58.961Z,101151.72
2022-10-19T21:46:27.465Z,101151.66
2022-10-19T21:48:56.333Z,101148.00
2022-10-19T21:51:33.386Z,101153.56
2022-10-19T21:54:03.459Z,101146.41
2022-10-19T21:56:33.348Z,101123.75
2022-10-19T21:59:01.593Z,101149.47
2022-10-19T22:01:30.889Z,101139.84
2022-10-19T22:03:59.699Z,101147.91
2022-10-19T22:06:29.616Z,101147.09
2022-10-19T22:08:58.408Z,101129.63
2022-10-19T22:11:28.352Z,101142.84
2022-10-19T22:13:56.957Z,101146.56
2022-10-19T22:16:26.317Z,100960.69
2022-10-19T22:18:54.693Z,101100.81
2022-10-19T22:21:25.390Z,101147.69
2022-10-19T22:23:54.444Z,101155.69
2022-10-19T22:26:25.005Z,101096.66
2022-10-19T22:28:56.618Z,101151.41
2022-10-19T22:31:25.701Z,101154.22
2022-10-19T22:33:53.677Z,101145.41
2022-10-19T22:36:21.538Z,101148.94
2022-10-19T22:38:49.807Z,101147.28
2022-10-19T22:41:17.678Z,101150.06
2022-10-19T22:43:45.642Z,101127.22
2022-10-19T22:46:14.913Z,101143.16
2022-10-19T22:48:42.737Z,101139.78
2022-10-19T22:51:10.567Z,101143.31
2022-10-19T22:53:38.410Z,101143.38
2022-10-19T22:56:06.725Z,101125.63
2022-10-19T22:58:34.542Z,101127.38
2022-10-19T23:01:03.407Z,101132.72
2022-10-19T23:03:32.637Z,101126.34
2022-10-19T23:06:00.940Z,101113.94
2022-10-19T23:08:29.038Z,101107.81
2022-10-19T23:10:57.052Z,101101.53
2022-10-19T23:13:25.255Z,101110.47
2022-10-19T23:15:53.153Z,101103.50
2022-10-19T23:18:21.062Z,101025.00
2022-10-19T23:20:57.470Z,100986.22
2022-10-19T23:23:25.833Z,101086.19
2022-10-19T23:26:01.973Z,101084.31
2022-10-19T23:28:31.060Z,100971.19
2022-10-19T23:30:59.991Z,101081.53
2022-10-19T23:33:27.896Z,101033.91
2022-10-19T23:36:02.878Z,101068.41
2022-10-19T23:38:30.776Z,101076.34
2022-10-19T23:40:58.587Z,101069.31
2022-10-19T23:43:26.811Z,100959.84
2022-10-19T23:45:54.843Z,101066.53
2022-10-19T23:48:22.753Z,101077.16
2022-10-19T23:50:59.450Z,101072.75
2022-10-19T23:53:27.446Z,101075.47
2022-10-19T23:55:59.828Z,101025.16
2022-10-19T23:58:28.276Z,101049.06
